Time;durP1;ratioP1;P1;durP2;ratioP2;P2;SDS_P1;SDS_P2;PMS_P1;PMS_P2;Temp;Humidity;BMP_temperature;BMP_pressure;BME280_temperature;BME280_humidity;BME280_pressure;Samples;Min_cycle;Max_cycle;Signal;HPM_P1;HPM_P2
2022/03/03 00:01:20;;;;;;;28.65;14.35;;;;;;;1.19;56.31;100460.41;5113828;28;20069;-73
2022/03/03 00:03:50;;;;;;;27.70;14.07;;;;;;;1.31;56.20;100462.81;5113599;28;20046;-74
2022/03/03 00:06:18;;;;;;;28.55;14.80;;;;;;;1.25;56.66;100465.53;5095938;28;20054;-74
2022/03/03 00:08:47;;;;;;;27.90;14.90;;;;;;;1.12;56.94;100464.91;5113512;28;20053;-72
2022/03/03 00:11:15;;;;;;;32.67;15.63;;;;;;;0.91;57.72;100460.91;5113961;28;20479;-71
2022/03/03 00:13:44;;;;;;;29.98;14.70;;;;;;;1.08;57.48;100461.47;5113309;28;20439;-71
2022/03/03 00:16:12;;;;;;;27.25;14.88;;;;;;;1.08;57.34;100461.47;5113760;28;20093;-71
2022/03/03 00:18:41;;;;;;;29.77;14.73;;;;;;;0.97;57.50;100466.06;5113575;28;20059;-74
2022/03/03 00:21:10;;;;;;;29.65;14.43;;;;;;;0.99;57.48;100464.28;5113333;28;20040;-71
2022/03/03 00:23:45;;;;;;;28.50;14.57;;;;;;;0.89;57.96;100465.31;5113122;28;20047;-72
2022/03/03 00:26:14;;;;;;;29.05;14.35;;;;;;;1.03;57.68;100465.94;5113398;28;20044;-71
2022/03/03 00:28:42;;;;;;;30.02;15.02;;;;;;;1.08;57.82;100464.09;5113208;28;20101;-79
2022/03/03 00:31:10;;;;;;;29.88;14.75;;;;;;;1.06;58.13;100471.16;5113713;28;20047;-71
2022/03/03 00:33:38;;;;;;;29.17;14.55;;;;;;;1.11;57.83;100469.28;5113347;28;20039;-72
2022/03/03 00:36:07;;;;;;;33.13;14.77;;;;;;;1.02;58.25;100466.81;5113268;28;20122;-71
2022/03/03 00:38:37;;;;;;;29.80;14.40;;;;;;;0.71;59.20;100466.50;5113534;28;20495;-72
2022/03/03 00:41:06;;;;;;;28.20;14.85;;;;;;;0.76;59.22;100467.28;5113012;28;20071;-72
2022/03/03 00:43:34;;;;;;;26.77;14.52;;;;;;;0.74;59.35;100471.69;5113528;28;20050;-72
2022/03/03 00:46:02;;;;;;;28.73;14.65;;;;;;;0.74;59.49;100458.56;5113414;28;20067;-71
2022/03/03 00:48:31;;;;;;;26.42;14.40;;;;;;;0.78;59.11;100462.03;5113745;28;20438;-71
2022/03/03 00:51:00;;;;;;;27.20;14.63;;;;;;;0.62;59.92;100457.91;5115919;28;20078;-71
2022/03/03 00:53:28;;;;;;;31.95;15.63;;;;;;;0.52;60.32;100457.19;5117643;28;20400;-71
2022/03/03 00:55:57;;;;;;;30.08;15.60;;;;;;;0.48;60.29;100452.84;5098635;28;20074;-72
2022/03/03 00:58:25;;;;;;;31.85;14.85;;;;;;;0.51;60.37;100448.44;5117608;28;20040;-71
2022/03/03 01:00:54;;;;;;;34.83;15.43;;;;;;;0.47;60.17;100448.50;5117199;28;20422;-72
2022/03/03 01:03:27;;;;;;;32.40;15.60;;;;;;;0.42;60.37;100450.34;5117437;28;20438;-72
2022/03/03 01:05:56;;;;;;;31.40;16.10;;;;;;;0.26;61.01;100444.47;5116946;28;20040;-72
2022/03/03 01:08:24;;;;;;;30.08;14.93;;;;;;;0.16;61.59;100437.63;5117316;28;20043;-72
2022/03/03 01:10:53;;;;;;;30.00;15.65;;;;;;;0.26;61.00;100432.22;5117072;28;20039;-72
2022/03/03 01:13:23;;;;;;;31.83;16.23;;;;;;;0.14;61.61;100436.78;5116924;28;20056;-72
2022/03/03 01:15:53;;;;;;;31.27;16.52;;;;;;;0.06;61.81;100434.25;5116741;28;20051;-72
2022/03/03 01:18:22;;;;;;;31.08;16.60;;;;;;;0.02;62.72;100429.09;5117003;28;20051;-72
2022/03/03 01:20:51;;;;;;;31.85;15.88;;;;;;;-0.11;63.59;100428.38;5116801;28;20044;-72
2022/03/03 01:23:19;;;;;;;32.58;16.45;;;;;;;0.11;62.28;100423.72;5117058;28;20109;-73
2022/03/03 01:25:47;;;;;;;27.85;14.82;;;;;;;0.09;62.39;100420.22;5116733;28;20035;-72
2022/03/03 01:28:15;;;;;;;31.33;16.65;;;;;;;0.05;62.66;100411.53;5117387;28;20076;-72
2022/03/03 01:30:45;;;;;;;29.85;15.88;;;;;;;0.15;62.39;100412.28;5117028;28;20369;-72
2022/03/03 01:33:14;;;;;;;32.85;16.85;;;;;;;0.10;62.52;100407.13;5117127;28;20093;-72
2022/03/03 01:35:42;;;;;;;30.17;15.85;;;;;;;0.17;61.86;100408.72;5116588;28;20048;-71
2022/03/03 01:38:11;;;;;;;34.50;17.38;;;;;;;0.09;62.08;100420.22;5116531;28;20469;-72
2022/03/03 01:40:39;;;;;;;34.47;16.88;;;;;;;0.18;62.30;100409.59;5116601;28;20039;-71
2022/03/03 01:43:07;;;;;;;33.75;17.42;;;;;;;0.03;62.40;100420.34;5116292;28;20474;-72
2022/03/03 01:45:36;;;;;;;33.47;17.13;;;;;;;0.13;62.43;100417.56;5116612;28;20043;-71
2022/03/03 01:48:06;;;;;;;32.03;16.52;;;;;;;-0.11;63.46;100415.28;5115920;28;20039;-69
2022/03/03 01:50:34;;;;;;;35.03;17.65;;;;;;;-0.14;63.17;100413.56;5116595;28;20104;-71
2022/03/03 01:53:03;;;;;;;35.72;17.02;;;;;;;-0.27;63.72;100408.53;5116078;28;20051;-71
2022/03/03 01:55:33;;;;;;;34.85;17.75;;;;;;;-0.31;63.96;100410.31;5097780;28;20051;-71
2022/03/03 01:58:04;;;;;;;36.78;16.45;;;;;;;-0.30;63.66;100404.16;5116094;28;20044;-71
2022/03/03 02:00:32;;;;;;;35.17;17.73;;;;;;;-0.35;63.53;100399.00;5116324;28;20040;-70
2022/03/03 02:03:01;;;;;;;37.88;18.63;;;;;;;-0.23;63.26;100395.34;5114980;28;20051;-69
2022/03/03 02:05:31;;;;;;;35.17;19.00;;;;;;;-0.27;63.10;100393.66;5116127;28;20036;-69
2022/03/03 02:08:00;;;;;;;35.55;17.45;;;;;;;-0.22;62.76;100389.19;5115687;28;20043;-69
2022/03/03 02:10:28;;;;;;;34.92;17.77;;;;;;;-0.20;62.75;100390.03;5116113;28;20043;-71
2022/03/03 02:12:56;;;;;;;38.20;18.38;;;;;;;-0.44;64.11;100390.41;5115453;28;20130;-70
2022/03/03 02:15:25;;;;;;;33.88;17.90;;;;;;;-0.38;63.86;100392.94;5115959;28;20104;-71
2022/03/03 02:17:53;;;;;;;33.45;17.77;;;;;;;-0.50;64.93;100388.72;5115718;28;20040;-70
2022/03/03 02:20:24;;;;;;;32.60;17.40;;;;;;;-0.55;65.18;100387.06;5116026;28;20050;-69
2022/03/03 02:22:53;;;;;;;36.63;17.50;;;;;;;-0.64;66.30;100388.03;5114361;28;20130;-71
2022/03/03 02:25:22;;;;;;;38.95;19.10;;;;;;;-0.73;66.64;100382.91;5098018;28;20056;-70
2022/03/03 02:27:50;;;;;;;35.17;18.60;;;;;;;-0.73;66.96;100382.91;5115653;28;20044;-76
2022/03/03 02:30:19;;;;;;;32.45;17.33;;;;;;;-0.76;67.58;100378.56;5115541;28;20130;-70
2022/03/03 02:32:48;;;;;;;34.75;17.73;;;;;;;-0.79;67.76;100383.84;5115327;28;20048;-70
2022/03/03 02:35:17;;;;;;;37.15;18.80;;;;;;;-0.79;68.08;100386.44;5115609;28;20043;-70
2022/03/03 02:37:47;;;;;;;36.60;18.65;;;;;;;-0.86;68.52;100374.34;5115545;28;20051;-69
2022/03/03 02:40:20;;;;;;;37.70;19.10;;;;;;;-0.87;69.26;100377.81;5115186;28;20040;-71
2022/03/03 02:42:49;;;;;;;38.60;19.55;;;;;;;-0.72;67.89;100382.88;5115516;28;20054;-70
2022/03/03 02:45:17;;;;;;;40.67;19.05;;;;;;;-0.76;68.25;100381.19;5115516;28;20039;-73
2022/03/03 02:47:48;;;;;;;33.88;18.30;;;;;;;-0.95;69.44;100379.69;5115193;28;20044;-74
2022/03/03 02:50:20;;;;;;;37.83;19.35;;;;;;;-1.06;70.46;100384.13;5115027;28;20084;-74
2022/03/03 02:52:49;;;;;;;37.80;18.45;;;;;;;-0.88;69.96;100369.09;5115428;28;20052;-73
2022/03/03 02:55:17;;;;;;;33.95;18.60;;;;;;;-0.91;70.41;100368.28;5115230;28;20123;-74
2022/03/03 02:57:55;;;;;;;38.05;19.48;;;;;;;-0.97;70.18;100365.72;5114850;28;20457;-73
2022/03/03 03:00:26;;;;;;;36.53;18.48;;;;;;;-1.09;71.43;100360.63;5114888;28;20407;-73
2022/03/03 03:02:56;;;;;;;38.38;19.50;;;;;;;-1.20;73.06;100358.97;5114844;28;20392;-73
2022/03/03 03:05:25;;;;;;;44.17;19.92;;;;;;;-1.22;73.01;100360.75;5114778;28;20058;-72
2022/03/03 03:07:55;;;;;;;40.00;19.50;;;;;;;-1.33;74.50;100357.38;5114290;28;20488;-73
2022/03/03 03:10:24;;;;;;;36.65;19.25;;;;;;;-1.26;75.31;100360.78;5114959;28;20101;-71
2022/03/03 03:12:52;;;;;;;43.17;19.23;;;;;;;-1.14;75.38;100357.19;5114360;28;20499;-79
2022/03/03 03:15:20;;;;;;;38.38;19.45;;;;;;;-1.10;74.75;100356.28;5114870;28;20036;-71
2022/03/03 03:17:49;;;;;;;40.58;19.63;;;;;;;-1.21;75.29;100361.63;5096785;28;20400;-71
2022/03/03 03:20:17;;;;;;;40.60;20.02;;;;;;;-1.27;74.51;100362.53;5114798;28;20138;-71
2022/03/03 03:22:45;;;;;;;39.50;20.00;;;;;;;-1.40;76.07;100355.72;5114574;28;20059;-71
2022/03/03 03:25:17;;;;;;;38.45;19.83;;;;;;;-1.46;77.12;100361.84;5114352;28;20392;-71
2022/03/03 03:27:45;;;;;;;45.70;21.27;;;;;;;-1.42;75.88;100360.09;5114904;28;20168;-72
2022/03/03 03:30:14;;;;;;;39.75;20.65;;;;;;;-1.35;74.69;100359.16;5114249;28;20047;-72
2022/03/03 03:32:42;;;;;;;40.58;20.13;;;;;;;-1.26;73.30;100363.41;5114397;28;20146;-71
2022/03/03 03:35:11;;;;;;;38.83;19.80;;;;;;;-1.29;71.75;100356.47;5113636;28;20067;-71
2022/03/03 03:37:40;;;;;;;36.03;19.02;;;;;;;-1.42;72.35;100357.47;5114008;28;20489;-70
2022/03/03 03:40:10;;;;;;;42.08;21.42;;;;;;;-1.25;72.25;100355.56;5114138;28;20039;-73
2022/03/03 03:42:40;;;;;;;37.20;19.85;;;;;;;-1.11;70.52;100347.56;5095895;28;20084;-73
2022/03/03 03:45:10;;;;;;;37.25;20.17;;;;;;;-1.14;70.25;100344.13;5114161;28;20042;-72
2022/03/03 03:47:39;;;;;;;39.08;20.38;;;;;;;-1.11;69.43;100349.31;5114250;28;20056;-73
2022/03/03 03:50:11;;;;;;;41.00;19.83;;;;;;;-1.29;71.42;100355.59;5113887;28;20063;-73
2022/03/03 03:52:41;;;;;;;41.03;20.40;;;;;;;-1.34;72.00;100355.66;5113725;28;20039;-72
2022/03/03 03:55:11;;;;;;;40.80;20.52;;;;;;;-1.43;72.79;100363.59;5095280;28;20050;-71
2022/03/03 03:57:41;;;;;;;42.42;20.00;;;;;;;-1.54;73.76;100360.22;5114253;28;20035;-71
2022/03/03 04:00:13;;;;;;;44.63;20.15;;;;;;;-1.62;75.60;100359.41;5113813;28;20043;-72
2022/03/03 04:02:45;;;;;;;37.97;19.55;;;;;;;-1.67;76.41;100355.97;5113578;28;20138;-70
2022/03/03 04:05:14;;;;;;;39.63;20.38;;;;;;;-1.64;76.33;100353.31;5113368;28;20052;-71
2022/03/03 04:07:44;;;;;;;40.92;20.77;;;;;;;-1.63;77.00;100345.47;5113920;28;20047;-71
2022/03/03 04:10:13;;;;;;;40.60;21.02;;;;;;;-1.71;78.82;100347.28;5113646;28;20097;-72
2022/03/03 04:12:42;;;;;;;39.53;20.58;;;;;;;-1.70;79.15;100350.78;5113454;28;20085;-72
2022/03/03 04:15:11;;;;;;;42.20;20.80;;;;;;;-1.76;80.55;100346.44;5113601;28;20122;-72
2022/03/03 04:17:39;;;;;;;41.70;20.20;;;;;;;-1.60;80.94;100342.81;5113868;28;20038;-72
2022/03/03 04:20:09;;;;;;;39.25;20.02;;;;;;;-1.73;80.97;100335.97;5113668;28;20055;-72
2022/03/03 04:22:40;;;;;;;42.53;20.60;;;;;;;-1.79;80.97;100336.88;5113838;28;20067;-71
2022/03/03 04:25:10;;;;;;;41.15;20.45;;;;;;;-1.84;82.44;100343.88;5112984;28;20042;-71
2022/03/03 04:27:39;;;;;;;40.95;20.70;;;;;;;-1.80;82.99;100339.53;5113795;28;20118;-71
2022/03/03 04:30:13;;;;;;;40.75;21.10;;;;;;;-1.58;80.53;100342.81;5113340;28;20439;-71
2022/03/03 04:32:42;;;;;;;40.00;20.80;;;;;;;-1.39;76.78;100344.34;5113671;28;20047;-72
2022/03/03 04:35:11;;;;;;;39.88;21.05;;;;;;;-1.39;77.13;100344.34;5113319;28;20044;-72
2022/03/03 04:37:41;;;;;;;41.60;20.67;;;;;;;-1.60;78.83;100337.59;5113606;28;20472;-72
2022/03/03 04:40:10;;;;;;;37.67;20.20;;;;;;;-1.70;79.44;100340.31;5095506;28;20051;-72
2022/03/03 04:42:39;;;;;;;40.03;20.85;;;;;;;-1.87;80.96;100348.28;5113103;28;20489;-71
2022/03/03 04:45:09;;;;;;;41.30;21.10;;;;;;;-2.00;82.65;100341.44;5113271;28;20051;-72
2022/03/03 04:47:37;;;;;;;43.28;20.98;;;;;;;-2.04;83.45;100345.78;5113571;28;20054;-72
2022/03/03 04:50:07;;;;;;;40.72;20.80;;;;;;;-2.00;86.10;100337.06;5113175;28;20397;-74
2022/03/03 04:52:37;;;;;;;40.30;20.52;;;;;;;-1.96;87.10;100336.16;5113543;28;20044;-74
2022/03/03 04:55:06;;;;;;;40.28;22.05;;;;;;;-1.96;86.05;100341.38;5113273;28;20060;-73
2022/03/03 04:57:35;;;;;;;45.60;22.05;;;;;;;-2.05;86.75;100344.94;5113194;28;20040;-74
2022/03/03 05:00:04;;;;;;;42.47;21.70;;;;;;;-1.91;84.83;100341.38;5094483;28;20488;-73
2022/03/03 05:02:35;;;;;;;40.90;20.38;;;;;;;-1.90;83.37;100328.28;5113279;28;20036;-73
2022/03/03 05:05:05;;;;;;;40.53;20.08;;;;;;;-2.03;84.81;100337.06;5113849;28;20055;-75
2022/03/03 05:07:34;;;;;;;37.28;19.98;;;;;;;-2.12;86.39;100331.94;5113691;28;20036;-74
2022/03/03 05:10:03;;;;;;;40.08;20.85;;;;;;;-1.94;85.10;100337.00;5113246;28;20517;-76
2022/03/03 05:12:32;;;;;;;40.22;20.73;;;;;;;-1.79;82.96;100339.50;5112832;28;20044;-72
2022/03/03 05:15:01;;;;;;;39.58;20.52;;;;;;;-1.59;81.08;100344.56;5113173;28;20481;-77
2022/03/03 05:17:31;;;;;;;45.60;20.88;;;;;;;-1.66;81.72;100344.63;5112795;28;20047;-72
2022/03/03 05:20:01;;;;;;;41.30;21.45;;;;;;;-1.81;83.08;100343.88;5113263;28;20051;-69
2022/03/03 05:22:30;;;;;;;38.33;21.08;;;;;;;-1.94;84.03;100352.69;5113298;28;20036;-69
2022/03/03 05:24:58;;;;;;;40.63;20.92;;;;;;;-1.79;82.88;100352.56;5112652;28;20039;-69
2022/03/03 05:27:26;;;;;;;41.83;21.00;;;;;;;-1.71;81.63;100351.66;5112791;28;20036;-70
2022/03/03 05:29:55;;;;;;;39.65;21.23;;;;;;;-1.76;81.55;100352.53;5112977;28;20170;-69
2022/03/03 05:32:23;;;;;;;38.30;20.42;;;;;;;-1.80;82.39;100350.84;5112708;28;20055;-70
2022/03/03 05:34:51;;;;;;;45.38;22.13;;;;;;;-1.77;82.39;100344.72;5112599;28;20084;-70
2022/03/03 05:37:24;;;;;;;39.42;19.83;;;;;;;-1.77;82.23;100350.81;5113929;28;20047;-71
2022/03/03 05:39:53;;;;;;;;;;;;;;;-1.64;80.65;100345.47;5117185;28;20047;-70
2022/03/03 05:42:24;;;;;;;38.22;19.45;;;;;;;-1.81;82.80;100348.25;5116398;28;19923;-69
2022/03/03 05:44:53;;;;;;;44.85;20.02;;;;;;;-1.71;82.16;100343.81;5116463;28;20040;-74
2022/03/03 05:47:21;;;;;;;43.15;21.95;;;;;;;-1.78;83.09;100349.06;5116034;28;20093;-72
2022/03/03 05:49:52;;;;;;;41.00;20.65;;;;;;;-1.63;81.85;100347.22;5116566;28;20039;-72
2022/03/03 05:52:21;;;;;;;39.63;21.20;;;;;;;-1.59;82.19;100349.78;5116313;28;20054;-72
2022/03/03 05:54:49;;;;;;;39.75;21.13;;;;;;;-1.53;82.52;100341.88;5116359;28;20085;-72
2022/03/03 05:57:21;;;;;;;39.42;21.00;;;;;;;-1.64;83.58;100351.59;5116142;28;20438;-71
2022/03/03 05:59:52;;;;;;;49.30;23.65;;;;;;;-1.63;85.12;100347.22;5116486;28;20043;-70
2022/03/03 06:02:21;;;;;;;47.35;23.08;;;;;;;-1.72;86.73;100348.16;5116256;28;20146;-73
2022/03/03 06:04:49;;;;;;;48.55;23.80;;;;;;;-1.69;87.74;100357.72;5115772;28;20044;-72
2022/03/03 06:07:26;;;;;;;41.33;22.77;;;;;;;-1.40;85.06;100365.31;5115617;28;20043;-72
2022/03/03 06:09:57;;;;;;;45.22;23.85;;;;;;;-1.31;84.13;100362.59;5116207;28;20114;-71
2022/03/03 06:12:34;;;;;;;52.65;24.88;;;;;;;-1.32;84.36;100368.72;5115815;28;20848;-71
2022/03/03 06:15:05;;;;;;;54.75;26.33;;;;;;;-1.32;83.56;100366.97;5116000;28;20043;-68
2022/03/03 06:17:35;;;;;;;48.30;24.02;;;;;;;-1.20;83.77;100368.59;5115567;28;20526;-71
2022/03/03 06:20:05;;;;;;;49.25;22.90;;;;;;;-0.98;80.49;100363.97;5115817;28;20435;-69
2022/03/03 06:22:35;;;;;;;42.78;21.50;;;;;;;-1.02;80.14;100364.91;5115925;28;20430;-70
2022/03/03 06:25:05;;;;;;;43.83;22.67;;;;;;;-1.24;82.68;100366.91;5115800;28;20047;-70
2022/03/03 06:27:35;;;;;;;42.08;22.80;;;;;;;-1.13;82.45;100362.41;5116034;28;20070;-69
2022/03/03 06:30:04;;;;;;;45.80;22.42;;;;;;;-1.22;83.61;100360.75;5115752;28;20122;-69
2022/03/03 06:32:34;;;;;;;45.15;22.80;;;;;;;-0.89;80.29;100366.50;5098046;28;20048;-70
2022/03/03 06:35:03;;;;;;;43.22;23.70;;;;;;;-0.90;80.53;100370.88;5115764;28;20480;-70
2022/03/03 06:37:32;;;;;;;44.60;21.98;;;;;;;-0.65;78.27;100375.81;5115583;28;20036;-70
2022/03/03 06:40:01;;;;;;;46.08;23.50;;;;;;;-0.82;77.66;100378.63;5115548;28;20416;-70
2022/03/03 06:42:31;;;;;;;43.75;22.55;;;;;;;-0.90;79.60;100372.63;5114930;28;20118;-71
2022/03/03 06:44:59;;;;;;;47.75;23.35;;;;;;;-0.82;78.78;100376.03;5115279;28;20202;-73
2022/03/03 06:47:27;;;;;;;48.67;24.50;;;;;;;-0.80;77.95;100376.84;5114954;28;20377;-72
2022/03/03 06:49:56;;;;;;;46.95;24.23;;;;;;;-0.73;77.71;100375.91;5115501;28;20096;-69
2022/03/03 06:52:27;;;;;;;49.13;24.48;;;;;;;-0.61;76.50;100373.13;5114695;28;20043;-68
2022/03/03 06:54:55;;;;;;;46.67;24.45;;;;;;;-0.74;77.23;100374.19;5115297;28;20109;-68
2022/03/03 06:57:25;;;;;;;46.90;23.63;;;;;;;-0.37;74.78;100373.72;5114705;28;20051;-70
2022/03/03 07:00:00;;;;;;;46.28;23.50;;;;;;;-0.27;73.39;100374.44;5115396;28;20047;-70
2022/03/03 07:02:32;;;;;;;48.40;24.08;;;;;;;-0.27;72.76;100374.44;5115076;28;20077;-69
2022/03/03 07:05:02;;;;;;;42.75;24.38;;;;;;;-0.37;73.60;100364.09;5115524;28;20477;-67
2022/03/03 07:07:32;;;;;;;43.70;23.33;;;;;;;-0.21;72.14;100372.59;5115533;28;20104;-69
2022/03/03 07:10:02;;;;;;;47.97;24.17;;;;;;;-0.26;72.78;100373.56;5115158;28;20442;-69
2022/03/03 07:12:34;;;;;;;44.97;23.08;;;;;;;-0.01;71.89;100367.03;5114745;28;20050;-70
2022/03/03 07:15:02;;;;;;;46.08;22.85;;;;;;;0.09;70.61;100371.25;5115123;28;20043;-68
2022/03/03 07:17:44;;;;;;;45.53;23.73;;;;;;;-0.02;71.43;100371.41;5114687;28;20049;-71
2022/03/03 07:20:17;;;;;;;47.05;24.02;;;;;;;0.14;70.98;100373.81;5114921;28;20079;-69
2022/03/03 07:22:58;;;;;;;45.33;23.40;;;;;;;0.20;71.09;100371.13;5114700;28;20047;-69
2022/03/03 07:25:33;;;;;;;47.90;22.25;;;;;;;0.52;68.30;100367.94;5114493;28;20050;-70
2022/03/03 07:28:06;;;;;;;42.17;22.90;;;;;;;0.47;67.99;100375.00;5114811;28;20393;-70
2022/03/03 07:30:41;;;;;;;44.40;22.92;;;;;;;0.34;68.31;100369.13;5114258;28;20418;-70
2022/03/03 07:33:13;;;;;;;46.65;23.85;;;;;;;0.44;68.47;100369.81;5114368;28;20089;-68
2022/03/03 07:35:43;;;;;;;42.58;22.33;;;;;;;0.68;67.63;100365.94;5114400;28;20048;-69
2022/03/03 07:38:19;;;;;;;49.58;23.30;;;;;;;0.74;66.55;100369.28;5114336;28;20055;-70
2022/03/03 07:40:49;;;;;;;46.42;21.85;;;;;;;0.78;65.13;100362.25;5114401;28;20039;-70
2022/03/03 07:43:19;;;;;;;43.28;22.75;;;;;;;0.61;67.18;100357.28;5113613;28;20051;-69
2022/03/03 07:45:47;;;;;;;40.63;21.90;;;;;;;0.88;65.27;100358.53;5114205;28;20048;-68
2022/03/03 07:48:16;;;;;;;41.83;22.77;;;;;;;0.84;65.62;100359.47;5114085;28;20044;-70
2022/03/03 07:50:44;;;;;;;46.33;23.50;;;;;;;0.64;66.37;100345.84;5114201;28;20507;-68
2022/03/03 07:53:14;;;;;;;42.65;22.55;;;;;;;0.74;66.40;100342.16;5114180;28;20473;-70
2022/03/03 07:55:44;;;;;;;42.03;23.15;;;;;;;0.79;66.90;100343.81;5114168;28;20408;-69
2022/03/03 07:58:15;;;;;;;43.83;21.45;;;;;;;0.96;65.16;100345.25;5113938;28;20122;-68
2022/03/03 08:00:48;;;;;;;47.20;22.77;;;;;;;0.99;65.77;100342.56;5113629;28;20545;-69
2022/03/03 08:03:19;;;;;;;42.88;22.75;;;;;;;1.06;65.74;100339.81;5113928;28;20085;-69
2022/03/03 08:05:50;;;;;;;37.80;21.63;;;;;;;1.13;64.99;100351.91;5095948;28;20054;-69
2022/03/03 08:08:29;;;;;;;40.67;21.77;;;;;;;1.19;64.72;100350.06;5113759;28;20434;-70
2022/03/03 08:10:59;;;;;;;42.28;21.15;;;;;;;1.39;63.48;100340.84;5113759;28;20059;-70
2022/03/03 08:13:29;;;;;;;43.30;21.67;;;;;;;1.34;64.02;100334.81;5113486;28;20146;-70
2022/03/03 08:15:59;;;;;;;42.67;22.75;;;;;;;1.51;63.63;100331.84;5113590;28;20500;-70
2022/03/03 08:18:29;;;;;;;43.08;21.40;;;;;;;1.48;63.54;100331.91;5113387;28;20055;-70
2022/03/03 08:21:00;;;;;;;38.78;21.30;;;;;;;1.51;63.50;100329.19;5113959;28;20054;-70
2022/03/03 08:23:29;;;;;;;36.72;20.67;;;;;;;1.60;63.63;100325.50;5113365;28;20054;-70
2022/03/03 08:25:58;;;;;;;37.22;20.77;;;;;;;1.67;63.51;100320.09;5113626;28;20047;-70
2022/03/03 08:28:26;;;;;;;41.35;19.95;;;;;;;1.91;62.49;100313.38;5113139;28;20052;-70
2022/03/03 08:30:59;;;;;;;37.25;20.23;;;;;;;1.92;62.40;100307.22;5113431;28;20447;-70
2022/03/03 08:33:39;;;;;;;36.33;19.35;;;;;;;2.16;61.33;100315.41;5113616;28;20358;-70
2022/03/03 08:36:14;;;;;;;36.22;18.42;;;;;;;2.27;61.07;100313.38;5113789;28;20104;-70
2022/03/03 08:38:49;;;;;;;35.30;18.75;;;;;;;2.32;60.67;100313.25;5113819;28;20047;-70
2022/03/03 08:41:21;;;;;;;32.72;18.23;;;;;;;2.55;60.14;100308.28;5113770;28;20454;-78
2022/03/03 08:43:52;;;;;;;34.80;19.10;;;;;;;2.60;59.57;100301.09;5113848;28;20434;-70
2022/03/03 08:46:24;;;;;;;34.60;18.35;;;;;;;2.65;59.32;100304.47;5113367;28;20088;-70
2022/03/03 08:49:00;;;;;;;37.03;18.75;;;;;;;2.63;58.73;100301.03;5113774;28;20096;-70
2022/03/03 08:51:29;;;;;;;33.28;19.00;;;;;;;2.64;59.42;100296.63;5113495;28;20035;-70
2022/03/03 08:53:58;;;;;;;29.58;16.48;;;;;;;2.74;58.53;100298.09;5113577;28;20043;-70
2022/03/03 08:56:26;;;;;;;31.40;16.30;;;;;;;3.14;57.05;100296.06;5113425;28;20036;-70
2022/03/03 08:58:55;;;;;;;33.47;16.20;;;;;;;3.22;56.40;100301.13;5113540;28;20043;-70
2022/03/03 09:01:23;;;;;;;28.67;14.70;;;;;;;3.38;55.67;100302.41;5113088;28;20146;-70
2022/03/03 09:03:52;;;;;;;27.42;14.63;;;;;;;3.42;55.28;100309.31;5094976;28;20134;-70
2022/03/03 09:06:21;;;;;;;30.73;14.75;;;;;;;3.59;54.45;100305.31;5112796;28;20036;-74
2022/03/03 09:08:50;;;;;;;27.58;14.25;;;;;;;3.73;53.47;100308.34;5113034;28;20044;-70
2022/03/03 09:11:20;;;;;;;24.30;14.02;;;;;;;3.60;53.65;100307.88;5114790;28;20047;-70
2022/03/03 09:13:48;;;;;;;26.98;14.05;;;;;;;3.58;53.45;100303.56;5117409;28;20096;-70
2022/03/03 09:16:17;;;;;;;26.02;14.35;;;;;;;3.64;53.60;100303.38;5117347;28;20497;-69
2022/03/03 09:18:46;;;;;;;28.52;14.18;;;;;;;3.83;53.12;100303.66;5117215;28;20142;-70
2022/03/03 09:21:15;;;;;;;26.50;14.30;;;;;;;3.84;52.91;100295.69;5117227;28;20039;-70
2022/03/03 09:23:46;;;;;;;28.10;15.18;;;;;;;3.93;52.75;100305.94;5116632;28;20047;-70
2022/03/03 09:26:14;;;;;;;26.42;13.95;;;;;;;3.96;52.68;100305.00;5117220;28;20080;-68
2022/03/03 09:28:43;;;;;;;25.85;14.55;;;;;;;3.93;52.48;100300.66;5116840;28;20046;-70
2022/03/03 09:31:11;;;;;;;26.80;14.05;;;;;;;3.82;52.50;100292.25;5117024;28;20350;-69
2022/03/03 09:33:40;;;;;;;27.63;14.35;;;;;;;3.96;52.44;100297.97;5116709;28;20042;-68
2022/03/03 09:36:09;;;;;;;26.67;14.38;;;;;;;4.06;52.24;100295.03;5116834;28;20079;-69
2022/03/03 09:38:37;;;;;;;27.30;13.25;;;;;;;4.07;51.59;100294.97;5116656;28;20043;-69
2022/03/03 09:41:13;;;;;;;24.05;13.25;;;;;;;4.08;51.28;100293.19;5116949;28;20395;-69
2022/03/03 09:43:42;;;;;;;22.73;13.20;;;;;;;3.99;52.00;100295.22;5098031;28;20131;-70
2022/03/03 09:46:10;;;;;;;25.55;13.63;;;;;;;4.19;52.01;100296.31;5116577;28;20044;-69
2022/03/03 09:48:39;;;;;;;26.35;13.88;;;;;;;4.29;51.20;100300.38;5116344;28;20039;-69
2022/03/03 09:51:07;;;;;;;25.83;13.60;;;;;;;4.34;50.90;100293.16;5116619;28;20097;-69
2022/03/03 09:53:40;;;;;;;26.30;13.07;;;;;;;4.49;50.57;100284.72;5116568;28;20047;-70
2022/03/03 09:56:09;;;;;;;26.25;13.57;;;;;;;4.40;50.63;100285.03;5116690;28;20043;-69
2022/03/03 09:58:38;;;;;;;21.63;12.73;;;;;;;4.41;50.95;100286.75;5116422;28;20066;-69
2022/03/03 10:01:08;;;;;;;21.92;13.23;;;;;;;4.32;50.65;100292.34;5116506;28;20455;-69
2022/03/03 10:03:37;;;;;;;23.65;12.65;;;;;;;4.31;51.25;100293.25;5116678;28;20076;-70
2022/03/03 10:06:14;;;;;;;20.52;11.63;;;;;;;4.47;51.07;100291.84;5116433;28;20039;-69
2022/03/03 10:08:42;;;;;;;27.90;13.00;;;;;;;4.76;49.93;100287.31;5098146;28;20044;-70
2022/03/03 10:11:12;;;;;;;26.60;13.15;;;;;;;4.72;49.93;100283.03;5116060;28;20461;-69
2022/03/03 10:13:50;;;;;;;24.77;12.70;;;;;;;4.73;49.84;100279.47;5115905;28;20446;-70
2022/03/03 10:16:24;;;;;;;23.58;13.27;;;;;;;4.71;50.10;100283.97;5116318;28;20504;-69
2022/03/03 10:18:59;;;;;;;26.08;12.75;;;;;;;4.92;48.86;100283.19;5116541;28;20138;-70
2022/03/03 10:21:30;;;;;;;25.55;13.20;;;;;;;4.90;49.01;100285.03;5115945;28;20044;-70
2022/03/03 10:23:58;;;;;;;24.45;13.10;;;;;;;5.00;49.14;100281.13;5115107;28;20046;-70
2022/03/03 10:26:39;;;;;;;23.50;13.32;;;;;;;5.01;48.31;100269.63;5115619;28;20043;-70
2022/03/03 10:29:18;;;;;;;21.77;12.25;;;;;;;5.12;48.14;100269.25;5116107;28;20048;-69
2022/03/03 10:31:48;;;;;;;26.90;11.95;;;;;;;5.19;47.49;100265.44;5115704;28;20447;-70
2022/03/03 10:34:18;;;;;;;28.15;13.40;;;;;;;5.27;47.71;100263.38;5115956;28;20092;-70
2022/03/03 10:36:56;;;;;;;23.90;13.18;;;;;;;5.37;47.55;100259.44;5115450;28;20043;-70
2022/03/03 10:39:24;;;;;;;24.30;13.45;;;;;;;5.32;47.91;100260.56;5115805;28;20039;-69
2022/03/03 10:41:56;;;;;;;23.10;12.95;;;;;;;5.29;48.11;100244.78;5115832;28;20043;-70
2022/03/03 10:44:32;;;;;;;23.80;13.05;;;;;;;5.32;47.72;100247.34;5115920;28;20054;-70
2022/03/03 10:47:03;;;;;;;26.35;14.35;;;;;;;5.39;47.70;100243.50;5115735;28;20046;-69
2022/03/03 10:49:32;;;;;;;24.17;13.80;;;;;;;5.56;46.88;100251.66;5115610;28;20047;-69
2022/03/03 10:52:12;;;;;;;27.15;13.95;;;;;;;5.39;47.76;100244.38;5115525;28;20093;-69
2022/03/03 10:54:49;;;;;;;23.30;13.25;;;;;;;5.39;48.05;100233.78;5115332;28;20122;-69
2022/03/03 10:57:39;;;;;;;24.65;12.55;;;;;;;5.50;47.60;100243.09;5115125;28;20039;-69
2022/03/03 11:00:13;;;;;;;26.88;13.30;;;;;;;5.61;47.07;100230.31;5115325;28;20040;-69
2022/03/03 11:02:44;;;;;;;25.65;14.13;;;;;;;5.75;47.64;100228.81;5114856;28;20044;-70
2022/03/03 11:05:15;;;;;;;25.10;13.88;;;;;;;5.77;46.96;100226.09;5115451;28;20067;-69
2022/03/03 11:07:44;;;;;;;24.50;13.90;;;;;;;5.66;46.78;100215.97;5114507;28;20542;-69
2022/03/03 11:10:15;;;;;;;24.67;13.45;;;;;;;5.67;47.12;100222.97;5115003;28;20069;-69
2022/03/03 11:12:44;;;;;;;27.35;13.98;;;;;;;5.74;47.03;100215.66;5114482;28;20075;-69
2022/03/03 11:15:16;;;;;;;26.38;13.48;;;;;;;5.82;47.02;100207.41;5114501;28;20044;-69
2022/03/03 11:17:47;;;;;;;25.77;13.93;;;;;;;5.85;46.61;100191.38;5114668;28;20054;-69
2022/03/03 11:20:18;;;;;;;23.70;13.52;;;;;;;6.01;46.29;100203.97;5115291;28;20051;-69
2022/03/03 11:22:48;;;;;;;24.15;13.68;;;;;;;5.97;46.19;100196.19;5114607;28;20045;-69
2022/03/03 11:25:20;;;;;;;22.23;13.63;;;;;;;5.89;46.38;100190.34;5115019;28;20450;-69
2022/03/03 11:28:01;;;;;;;27.13;13.85;;;;;;;5.83;46.92;100187.94;5114146;28;20088;-69